createdAt,value
2023-01-21T00:00:27.901Z,6.75
2023-01-21T00:05:30.133Z,6.30
2023-01-21T00:10:32.334Z,7.30
2023-01-21T00:15:36.575Z,6.78
2023-01-21T00:20:38.776Z,6.50
2023-01-21T00:25:41.072Z,6.95
2023-01-21T00:30:43.353Z,7.30
2023-01-21T00:35:45.720Z,8.75
2023-01-21T00:40:47.918Z,10.63
2023-01-21T00:45:50.102Z,13.23
2023-01-21T00:50:53.862Z,19.25
2023-01-21T00:56:00.397Z,16.88
2023-01-21T01:01:13.622Z,17.83
2023-01-21T01:06:18.993Z,13.80
2023-01-21T01:11:21.717Z,11.63
2023-01-21T01:16:24.858Z,12.02
2023-01-21T01:21:27.091Z,12.57
2023-01-21T01:26:29.840Z,12.85
2023-01-21T01:31:32.662Z,12.85
2023-01-21T01:36:34.883Z,10.52
2023-01-21T01:41:37.353Z,9.45
2023-01-21T01:46:39.584Z,8.55
2023-01-21T01:56:55.324Z,6.10
2023-01-21T02:02:01.089Z,5.70
2023-01-21T02:07:04.418Z,6.63
2023-01-21T02:12:07.355Z,7.35
2023-01-21T02:27:57.250Z,6.70
2023-01-21T02:38:39.157Z,6.93
2023-01-21T02:49:05.226Z,7.10
2023-01-21T02:54:35.876Z,7.55
2023-01-21T02:59:40.324Z,10.45
2023-01-21T03:10:06.712Z,9.20
2023-01-21T03:15:38.463Z,8.65
2023-01-21T03:20:47.610Z,12.75
2023-01-21T03:25:51.203Z,14.45
2023-01-21T03:31:00.879Z,9.75
2023-01-21T03:36:11.630Z,9.20
2023-01-21T03:41:23.543Z,6.18
2023-01-21T03:46:37.271Z,5.47
2023-01-21T03:51:47.485Z,5.50
2023-01-21T03:56:49.685Z,5.10
2023-01-21T04:01:51.872Z,4.95
2023-01-21T04:06:54.177Z,5.18
2023-01-21T04:11:56.453Z,5.40
2023-01-21T04:16:58.723Z,5.60
2023-01-21T04:22:01.289Z,5.40
2023-01-21T04:27:03.622Z,5.50
2023-01-21T04:32:05.931Z,5.47
2023-01-21T04:37:08.158Z,5.80
2023-01-21T04:42:10.415Z,5.20
2023-01-21T04:47:12.574Z,5.70
2023-01-21T04:52:14.770Z,5.60
2023-01-21T04:57:17.050Z,6.03
2023-01-21T05:02:19.277Z,5.68
2023-01-21T05:07:21.898Z,5.65
2023-01-21T05:12:24.207Z,9.35
2023-01-21T05:17:26.645Z,6.40
2023-01-21T05:22:28.842Z,5.30
2023-01-21T05:27:31.271Z,6.03
2023-01-21T05:32:33.586Z,6.13
2023-01-21T05:37:35.843Z,5.53
2023-01-21T05:42:38.089Z,6.00
2023-01-21T05:47:40.420Z,5.72
2023-01-21T05:52:42.648Z,5.20
2023-01-21T05:57:44.896Z,5.72
2023-01-21T06:02:47.081Z,5.90
2023-01-21T06:07:50.471Z,7.18
2023-01-21T06:12:52.856Z,5.70
2023-01-21T06:17:55.540Z,5.95
2023-01-21T06:22:58.661Z,5.60
2023-01-21T06:28:01.433Z,5.60
2023-01-21T06:33:03.780Z,6.30
2023-01-21T06:38:06.005Z,5.03
2023-01-21T06:43:08.443Z,5.00
2023-01-21T06:48:10.654Z,5.40
2023-01-21T06:53:13.416Z,4.90
2023-01-21T06:58:15.687Z,5.32
2023-01-21T07:03:17.966Z,5.30
2023-01-21T07:08:20.284Z,4.90
2023-01-21T07:13:23.453Z,4.60
2023-01-21T07:18:25.789Z,4.90
2023-01-21T07:23:28.112Z,5.57
2023-01-21T07:28:30.364Z,4.80
2023-01-21T07:33:32.725Z,5.50
2023-01-21T07:38:35.168Z,6.40
2023-01-21T07:43:37.422Z,5.68
2023-01-21T07:48:39.610Z,5.72
2023-01-21T07:53:41.800Z,5.72
2023-01-21T07:58:44.395Z,5.85
2023-01-21T08:03:46.615Z,5.18
2023-01-21T08:08:48.970Z,5.93
2023-01-21T08:13:51.246Z,6.38
2023-01-21T08:18:54.633Z,5.80
2023-01-21T08:23:56.948Z,5.68
2023-01-21T08:28:59.209Z,5.43
2023-01-21T08:34:01.816Z,5.93
2023-01-21T08:39:06.436Z,6.13
2023-01-21T08:44:09.072Z,6.18
2023-01-21T08:49:11.535Z,17.05
2023-01-21T08:54:13.831Z,7.25
2023-01-21T08:59:17.027Z,6.38
2023-01-21T09:04:19.308Z,6.70
2023-01-21T09:09:21.595Z,6.55
2023-01-21T09:14:23.883Z,17.85
2023-01-21T09:19:26.331Z,6.60
2023-01-21T09:24:28.688Z,6.18
2023-01-21T09:29:30.959Z,6.35
2023-01-21T09:34:35.562Z,6.90
2023-01-21T09:39:38.132Z,7.40
2023-01-21T09:44:44.977Z,7.25
2023-01-21T09:54:58.568Z,7.28
2023-01-21T10:05:46.808Z,7.05
2023-01-21T10:11:02.294Z,7.60
2023-01-21T10:21:45.794Z,6.32
2023-01-21T10:26:49.879Z,6.10
2023-01-21T10:31:59.501Z,6.68
2023-01-21T11:03:10.848Z,6.03
2023-01-21T11:08:20.177Z,6.38
2023-01-21T11:13:23.283Z,6.20
2023-01-21T11:18:43.047Z,6.53
2023-01-21T11:23:57.548Z,6.30
2023-01-21T11:34:20.545Z,6.10
2023-01-21T11:39:26.843Z,6.15
2023-01-21T11:44:29.075Z,6.63
2023-01-21T11:49:33.273Z,6.30
2023-01-21T11:54:40.455Z,6.35
2023-01-21T11:59:47.204Z,6.60
2023-01-21T12:04:54.037Z,6.20
2023-01-21T12:10:22.949Z,5.95
2023-01-21T12:25:58.037Z,6.68
2023-01-21T12:31:37.622Z,6.80
2023-01-21T12:36:53.209Z,6.88
2023-01-21T12:47:36.053Z,6.55
2023-01-21T12:53:02.717Z,7.13
2023-01-21T12:58:10.117Z,7.50
2023-01-21T13:13:42.003Z,7.82
2023-01-21T13:18:50.500Z,6.90
2023-01-21T13:50:29.965Z,7.07
2023-01-21T14:00:55.450Z,7.47
2023-01-21T14:06:22.468Z,8.10
2023-01-21T14:11:35.677Z,7.93
2023-01-21T14:22:12.949Z,7.88
2023-01-21T14:43:40.497Z,7.88
2023-01-21T14:54:15.079Z,7.97
2023-01-21T14:59:42.039Z,7.97
2023-01-21T15:04:54.601Z,8.18
2023-01-21T15:10:00.482Z,9.20
2023-01-21T15:15:24.206Z,14.60
2023-01-21T15:20:48.051Z,11.00
2023-01-21T15:36:34.752Z,16.00
2023-01-21T15:52:36.665Z,9.45
2023-01-21T16:03:16.269Z,10.02
2023-01-21T16:19:00.525Z,12.32
2023-01-21T16:24:08.629Z,12.20
2023-01-21T16:29:14.088Z,14.23
2023-01-21T16:34:38.029Z,14.35
2023-01-21T16:39:42.144Z,12.05
2023-01-21T16:44:44.375Z,16.20
2023-01-21T16:49:46.660Z,12.68
2023-01-21T16:54:51.775Z,12.63
2023-01-21T16:59:56.039Z,12.15
2023-01-21T17:05:00.924Z,11.40
2023-01-21T17:10:08.583Z,12.40
2023-01-21T17:15:25.559Z,11.35
2023-01-21T17:25:49.547Z,11.90
2023-01-21T17:31:21.074Z,11.88
2023-01-21T17:36:32.174Z,12.18
2023-01-21T17:41:37.898Z,14.93
2023-01-21T17:46:46.028Z,13.00
2023-01-21T17:51:49.313Z,13.50
2023-01-21T18:02:04.853Z,12.73
2023-01-21T18:12:29.559Z,12.18
2023-01-21T18:17:32.221Z,11.90
2023-01-21T18:22:36.087Z,11.70
2023-01-21T18:27:38.466Z,11.90
2023-01-21T18:32:42.675Z,13.07
2023-01-21T18:37:45.093Z,14.73
2023-01-21T18:42:50.811Z,11.60
2023-01-21T18:47:53.428Z,10.25
2023-01-21T18:52:56.624Z,11.18
2023-01-21T18:57:58.881Z,10.25
2023-01-21T19:03:01.715Z,13.13
2023-01-21T19:08:06.243Z,11.95
2023-01-21T19:13:10.074Z,13.52
2023-01-21T19:18:14.377Z,14.02
2023-01-21T19:23:18.391Z,10.82
2023-01-21T19:28:21.820Z,9.55
2023-01-21T19:33:25.059Z,9.35
2023-01-21T19:38:27.609Z,14.00
2023-01-21T19:43:29.954Z,12.48
2023-01-21T19:48:32.357Z,13.73
2023-01-21T19:53:34.838Z,10.80
2023-01-21T19:58:38.213Z,13.98
2023-01-21T20:03:54.614Z,11.68
2023-01-21T20:09:01.985Z,9.60
2023-01-21T20:14:04.324Z,8.23
2023-01-21T20:19:09.072Z,8.88
2023-01-21T20:24:11.398Z,8.32
2023-01-21T20:29:16.676Z,8.02
2023-01-21T20:34:18.891Z,8.30
2023-01-21T20:39:21.371Z,8.07
2023-01-21T20:44:25.226Z,8.15
2023-01-21T20:49:27.467Z,8.13
2023-01-21T20:54:29.718Z,8.07
2023-01-21T20:59:32.231Z,8.52
2023-01-21T21:20:19.782Z,8.55
2023-01-21T21:25:25.700Z,8.75
2023-01-21T21:30:33.086Z,8.27
2023-01-21T21:35:37.147Z,7.60
2023-01-21T21:40:39.417Z,7.40
2023-01-21T21:46:02.266Z,8.98
2023-01-21T21:51:06.478Z,22.83
2023-01-21T21:56:11.238Z,8.30
2023-01-21T22:01:21.017Z,7.65
2023-01-21T22:06:23.294Z,7.07
2023-01-21T22:11:26.797Z,7.93
2023-01-21T22:16:29.586Z,7.22
2023-01-21T22:21:34.080Z,6.68
2023-01-21T22:26:36.511Z,7.03
2023-01-21T22:31:38.880Z,7.45
2023-01-21T22:36:46.976Z,6.90
2023-01-21T22:41:49.296Z,6.95
2023-01-21T22:46:51.523Z,7.10
2023-01-21T22:51:55.125Z,7.57
2023-01-21T22:56:57.365Z,7.03
2023-01-21T23:01:59.563Z,7.63
2023-01-21T23:07:01.883Z,7.13
2023-01-21T23:12:04.312Z,6.90
2023-01-21T23:17:06.550Z,7.60
2023-01-21T23:22:09.072Z,7.30
2023-01-21T23:27:11.321Z,7.53
2023-01-21T23:32:13.604Z,7.18
2023-01-21T23:37:15.839Z,7.55
2023-01-21T23:42:19.477Z,8.38
2023-01-21T23:47:21.722Z,7.45
2023-01-21T23:52:23.945Z,6.85
2023-01-21T23:57:26.336Z,7.40
